createdAt,value
2017-04-15T00:00:23.698Z,1005.95
2017-04-15T00:01:24.938Z,1005.95
2017-04-15T00:02:26.209Z,1005.94
2017-04-15T00:03:27.458Z,1005.94
2017-04-15T00:04:28.695Z,1005.94
2017-04-15T00:05:29.934Z,1005.9
2017-04-15T00:06:31.187Z,1005.88
2017-04-15T00:07:32.507Z,1005.87
2017-04-15T00:08:33.741Z,1005.85
2017-04-15T00:09:35.073Z,1005.85
2017-04-15T00:10:36.324Z,1005.85
2017-04-15T00:11:37.554Z,1005.84
2017-04-15T00:12:38.792Z,1005.81
2017-04-15T00:13:40.117Z,1005.75
2017-04-15T00:14:41.355Z,1005.75
2017-04-15T00:15:42.610Z,1005.72
2017-04-15T00:16:44.023Z,1005.65
2017-04-15T00:17:45.232Z,1005.64
2017-04-15T00:18:46.470Z,1005.67
2017-04-15T00:19:47.860Z,1005.63
2017-04-15T00:20:49.082Z,1005.58
2017-04-15T00:21:50.377Z,1005.54
2017-04-15T00:22:51.617Z,1005.58
2017-04-15T00:23:52.856Z,1005.57
2017-04-15T00:24:54.098Z,1005.62
2017-04-15T00:25:55.325Z,1005.58
2017-04-15T00:26:56.686Z,1005.58
2017-04-15T00:27:57.934Z,1005.56
2017-04-15T00:28:59.164Z,1005.58
2017-04-15T00:30:00.430Z,1005.51
2017-04-15T00:31:01.651Z,1005.49
2017-04-15T00:32:02.897Z,1005.45
2017-04-15T00:33:04.229Z,1005.43
2017-04-15T00:34:05.481Z,1005.44
2017-04-15T00:35:06.720Z,1005.44
2017-04-15T00:36:07.959Z,1005.43
2017-04-15T00:37:09.311Z,1005.42
2017-04-15T00:38:10.626Z,1005.43
2017-04-15T00:39:12.095Z,1005.36
2017-04-15T00:40:13.354Z,1005.36
2017-04-15T00:41:14.578Z,1005.37
2017-04-15T00:42:15.932Z,1005.34
2017-04-15T00:43:17.243Z,1005.33
2017-04-15T00:44:18.503Z,1005.3
2017-04-15T00:45:19.850Z,1005.28
2017-04-15T00:46:21.106Z,1005.26
2017-04-15T00:47:22.320Z,1005.27
2017-04-15T00:48:23.560Z,1005.25
2017-04-15T00:49:24.962Z,1005.21
2017-04-15T00:50:26.209Z,1005.21
2017-04-15T00:51:27.467Z,1005.18
2017-04-15T00:52:28.683Z,1005.18
2017-04-15T00:53:29.922Z,1005.16
2017-04-15T00:54:31.153Z,1005.15
2017-04-15T00:55:32.460Z,1005.1
2017-04-15T00:56:33.826Z,1005.12
2017-04-15T00:57:35.043Z,1005.06
2017-04-15T00:58:36.277Z,1005.06
2017-04-15T00:59:37.514Z,1005.02
2017-04-15T01:00:38.804Z,1005.05
2017-04-15T01:01:40.058Z,1005.04
2017-04-15T01:02:41.296Z,1005
2017-04-15T01:03:42.573Z,1004.95
2017-04-15T01:04:43.837Z,1004.95
2017-04-15T01:05:45.071Z,1004.95
2017-04-15T01:06:46.310Z,1004.97
2017-04-15T01:07:47.553Z,1004.88
2017-04-15T01:08:48.892Z,1004.94
2017-04-15T01:09:50.139Z,1004.88
2017-04-15T01:10:51.378Z,1004.9
2017-04-15T01:11:52.627Z,1004.9
2017-04-15T01:12:53.890Z,1004.91
2017-04-15T01:13:55.130Z,1004.91
2017-04-15T01:14:56.391Z,1004.89
2017-04-15T01:15:57.671Z,1004.94
2017-04-15T01:16:58.892Z,1004.92
2017-04-15T01:18:00.179Z,1004.9
2017-04-15T01:19:01.418Z,1004.9
2017-04-15T01:20:02.682Z,1004.93
2017-04-15T01:21:03.925Z,1004.91
2017-04-15T01:22:05.152Z,1004.89
2017-04-15T01:23:06.508Z,1004.83
2017-04-15T01:24:07.749Z,1004.85
2017-04-15T01:25:09.006Z,1004.87
2017-04-15T01:26:10.267Z,1004.87
2017-04-15T01:27:11.511Z,1004.84
2017-04-15T01:28:12.740Z,1004.85
2017-04-15T01:29:14.005Z,1004.83
2017-04-15T01:30:15.232Z,1004.85
2017-04-15T01:31:16.461Z,1004.86
2017-04-15T01:32:17.753Z,1004.77
2017-04-15T01:33:18.980Z,1004.84
2017-04-15T01:34:20.219Z,1004.8
2017-04-15T01:35:21.539Z,1004.79
2017-04-15T01:36:22.767Z,1004.81
2017-04-15T01:37:24.017Z,1004.81
2017-04-15T01:38:25.318Z,1004.8
2017-04-15T01:39:26.617Z,1004.81
2017-04-15T01:40:27.850Z,1004.83
2017-04-15T01:41:29.090Z,1004.81
2017-04-15T01:42:30.403Z,1004.81
2017-04-15T01:43:31.672Z,1004.82
2017-04-15T01:44:32.910Z,1004.79
2017-04-15T01:45:34.145Z,1004.85
2017-04-15T01:46:35.379Z,1004.8
2017-04-15T01:47:36.617Z,1004.82
2017-04-15T01:48:37.880Z,1004.79
2017-04-15T01:49:39.141Z,1004.79
2017-04-15T01:50:40.348Z,1004.79
2017-04-15T01:51:41.602Z,1004.69
2017-04-15T01:52:42.833Z,1004.67
2017-04-15T01:53:44.085Z,1004.72
2017-04-15T01:54:45.332Z,1004.71
2017-04-15T01:55:46.601Z,1004.7
2017-04-15T01:56:47.858Z,1004.69
2017-04-15T01:57:49.098Z,1004.71
2017-04-15T01:58:50.428Z,1004.67
2017-04-15T01:59:51.665Z,1004.67
2017-04-15T02:00:52.974Z,1004.67
2017-04-15T02:01:54.325Z,1004.68
2017-04-15T02:02:55.546Z,1004.65
2017-04-15T02:03:56.785Z,1004.68
2017-04-15T02:04:58.023Z,1004.7
2017-04-15T02:05:59.266Z,1004.67
2017-04-15T02:07:00.500Z,1004.63
2017-04-15T02:08:01.751Z,1004.65
2017-04-15T02:09:03.132Z,1004.63
2017-04-15T02:10:04.407Z,1004.57
2017-04-15T02:11:05.627Z,1004.53
2017-04-15T02:12:06.888Z,1004.51
2017-04-15T02:13:08.197Z,1004.53
2017-04-15T02:14:09.422Z,1004.55
2017-04-15T02:15:10.653Z,1004.49
2017-04-15T02:16:11.997Z,1004.5
2017-04-15T02:17:13.223Z,1004.5
2017-04-15T02:18:14.468Z,1004.51
2017-04-15T02:19:15.737Z,1004.53
2017-04-15T02:20:16.997Z,1004.53
2017-04-15T02:21:18.243Z,1004.51
2017-04-15T02:22:19.489Z,1004.56
2017-04-15T02:23:20.745Z,1004.56
2017-04-15T02:24:21.971Z,1004.58
2017-04-15T02:25:23.261Z,1004.6
2017-04-15T02:26:24.508Z,1004.51
2017-04-15T02:27:25.741Z,1004.53
2017-04-15T02:28:26.984Z,1004.48
2017-04-15T02:29:28.222Z,1004.45
2017-04-15T02:30:29.453Z,1004.43
2017-04-15T02:31:30.709Z,1004.41
2017-04-15T02:32:32.004Z,1004.42
2017-04-15T02:33:33.314Z,1004.45
2017-04-15T02:34:34.482Z,1004.37
2017-04-15T02:35:35.728Z,1004.43
2017-04-15T02:36:36.966Z,1004.42
2017-04-15T02:37:38.214Z,1004.43
2017-04-15T02:38:39.441Z,1004.41
2017-04-15T02:39:40.794Z,1004.35
2017-04-15T02:40:42.026Z,1004.37
2017-04-15T02:41:43.265Z,1004.32
2017-04-15T02:42:44.500Z,1004.33
2017-04-15T02:43:45.743Z,1004.33
2017-04-15T02:44:46.993Z,1004.31
2017-04-15T02:45:48.302Z,1004.28
2017-04-15T02:46:49.610Z,1004.24
2017-04-15T02:47:50.854Z,1004.26
2017-04-15T02:48:52.089Z,1004.19
2017-04-15T02:49:53.345Z,1004.22
2017-04-15T02:50:54.575Z,1004.23
2017-04-15T02:51:55.806Z,1004.23
2017-04-15T02:52:57.049Z,1004.21
2017-04-15T02:53:58.284Z,1004.19
2017-04-15T02:54:59.541Z,1004.12
2017-04-15T02:56:00.764Z,1004.11
2017-04-15T02:57:01.999Z,1004.1
2017-04-15T02:58:03.242Z,1004.19
2017-04-15T02:59:04.607Z,1004.15
2017-04-15T03:00:05.951Z,1004.18
2017-04-15T03:01:07.181Z,1004.13
2017-04-15T03:02:08.424Z,1004.09
2017-04-15T03:03:09.659Z,1004.09
2017-04-15T03:04:11.018Z,1004.11
2017-04-15T03:05:12.270Z,1004.08
2017-04-15T03:06:13.636Z,1004.08
2017-04-15T03:07:14.875Z,1004.08
2017-04-15T03:08:16.172Z,1004.01
2017-04-15T03:09:17.521Z,1004.06
2017-04-15T03:10:18.858Z,1004.07
2017-04-15T03:11:20.094Z,1004.06
2017-04-15T03:12:21.326Z,1004.06
2017-04-15T03:13:22.570Z,1003.97
2017-04-15T03:14:23.804Z,1004
2017-04-15T03:15:25.073Z,1003.97
2017-04-15T03:16:26.354Z,1003.96
2017-04-15T03:17:27.592Z,1003.9
2017-04-15T03:18:28.834Z,1003.92
2017-04-15T03:19:30.143Z,1003.91
2017-04-15T03:20:31.573Z,1003.89
2017-04-15T03:21:32.800Z,1003.87
2017-04-15T03:22:34.085Z,1003.82
2017-04-15T03:23:35.327Z,1003.81
2017-04-15T03:24:36.581Z,1003.86
2017-04-15T03:25:37.811Z,1003.88
2017-04-15T03:26:39.077Z,1003.83
2017-04-15T03:27:40.397Z,1003.79
2017-04-15T03:28:41.655Z,1003.75
2017-04-15T03:29:42.933Z,1003.77
2017-04-15T03:30:44.173Z,1003.73
2017-04-15T03:31:45.428Z,1003.74
2017-04-15T03:32:46.659Z,1003.68
2017-04-15T03:33:48.015Z,1003.69
2017-04-15T03:34:49.287Z,1003.7
2017-04-15T03:35:50.724Z,1003.72
2017-04-15T03:36:51.949Z,1003.66
2017-04-15T03:37:53.187Z,1003.74
2017-04-15T03:38:54.435Z,1003.78
2017-04-15T03:39:55.670Z,1003.78
2017-04-15T03:40:56.991Z,1003.78
2017-04-15T03:41:58.229Z,1003.72
2017-04-15T03:42:59.469Z,1003.65
2017-04-15T03:44:00.702Z,1003.64
2017-04-15T03:45:01.929Z,1003.66
2017-04-15T03:46:03.216Z,1003.64
2017-04-15T03:47:04.518Z,1003.67
2017-04-15T03:48:05.730Z,1003.68
2017-04-15T03:49:06.992Z,1003.68
2017-04-15T03:50:08.236Z,1003.68
2017-04-15T03:51:09.473Z,1003.67
2017-04-15T03:52:10.795Z,1003.64
2017-04-15T03:53:12.036Z,1003.63
2017-04-15T03:54:13.432Z,1003.57
2017-04-15T03:55:14.863Z,1003.53
2017-04-15T03:56:16.129Z,1003.57
2017-04-15T03:57:17.343Z,1003.57
2017-04-15T03:58:18.684Z,1003.59
2017-04-15T03:59:19.938Z,1003.55
2017-04-15T04:00:21.193Z,1003.57
2017-04-15T04:01:22.428Z,1003.55
2017-04-15T04:02:23.672Z,1003.53
2017-04-15T04:03:25.085Z,1003.46
2017-04-15T04:04:26.381Z,1003.42
2017-04-15T04:05:27.620Z,1003.44
2017-04-15T04:06:28.859Z,1003.48
2017-04-15T04:07:30.140Z,1003.53
2017-04-15T04:08:31.336Z,1003.56
2017-04-15T04:09:32.574Z,1003.51
2017-04-15T04:10:33.807Z,1003.52
2017-04-15T04:11:35.081Z,1003.53
2017-04-15T04:12:36.351Z,1003.46
2017-04-15T04:13:37.586Z,1003.48
2017-04-15T04:14:38.829Z,1003.46
2017-04-15T04:15:40.062Z,1003.46
2017-04-15T04:16:41.313Z,1003.51
2017-04-15T04:17:42.562Z,1003.45
2017-04-15T04:18:43.843Z,1003.39
2017-04-15T04:19:45.079Z,1003.42
2017-04-15T04:20:46.319Z,1003.38
2017-04-15T04:21:47.554Z,1003.39
2017-04-15T04:22:48.790Z,1003.33
2017-04-15T04:23:50.182Z,1003.39
2017-04-15T04:24:51.430Z,1003.41
2017-04-15T04:25:52.648Z,1003.36
2017-04-15T04:26:53.949Z,1003.42
2017-04-15T04:27:55.183Z,1003.38
2017-04-15T04:28:56.440Z,1003.4
2017-04-15T04:29:57.685Z,1003.42
2017-04-15T04:30:58.960Z,1003.39
2017-04-15T04:32:00.169Z,1003.34
2017-04-15T04:33:01.402Z,1003.37
2017-04-15T04:34:02.639Z,1003.35
2017-04-15T04:35:03.906Z,1003.39
2017-04-15T04:36:05.179Z,1003.4
2017-04-15T04:37:06.616Z,1003.35
2017-04-15T04:38:07.943Z,1003.38
2017-04-15T04:39:09.177Z,1003.31
2017-04-15T04:40:10.411Z,1003.32
2017-04-15T04:41:11.650Z,1003.37
2017-04-15T04:42:12.890Z,1003.3
2017-04-15T04:43:14.173Z,1003.34
2017-04-15T04:44:15.475Z,1003.3
2017-04-15T04:45:16.603Z,1003.32
2017-04-15T04:46:17.845Z,1003.25
2017-04-15T04:47:19.092Z,1003.29
2017-04-15T04:48:20.345Z,1003.29
2017-04-15T04:49:21.610Z,1003.3
2017-04-15T04:50:22.919Z,1003.25
2017-04-15T04:51:24.156Z,1003.21
2017-04-15T04:52:25.395Z,1003.29
2017-04-15T04:53:26.662Z,1003.31
2017-04-15T04:54:27.893Z,1003.28
2017-04-15T04:55:29.154Z,1003.21
2017-04-15T04:56:30.407Z,1003.23
2017-04-15T04:57:31.742Z,1003.29
2017-04-15T04:58:32.981Z,1003.29
2017-04-15T04:59:34.228Z,1003.32
2017-04-15T05:00:35.502Z,1003.27
2017-04-15T05:01:36.746Z,1003.31
2017-04-15T05:02:38.289Z,1003.27
2017-04-15T05:03:39.535Z,1003.27
2017-04-15T05:04:40.773Z,1003.31
2017-04-15T05:05:42.013Z,1003.37
2017-04-15T05:06:43.272Z,1003.35
2017-04-15T05:07:44.507Z,1003.28
2017-04-15T05:08:45.762Z,1003.35
2017-04-15T05:09:46.987Z,1003.29
2017-04-15T05:10:48.229Z,1003.32
2017-04-15T05:11:49.471Z,1003.26
2017-04-15T05:12:50.710Z,1003.22
2017-04-15T05:13:51.939Z,1003.22
2017-04-15T05:14:53.205Z,1003.32
2017-04-15T05:15:54.445Z,1003.32
2017-04-15T05:16:55.782Z,1003.32
2017-04-15T05:17:57.031Z,1003.33
2017-04-15T05:18:58.245Z,1003.3
2017-04-15T05:19:59.479Z,1003.33
2017-04-15T05:21:00.756Z,1003.3
2017-04-15T05:22:02.009Z,1003.35
2017-04-15T05:23:03.252Z,1003.32
2017-04-15T05:24:04.479Z,1003.3
2017-04-15T05:25:05.721Z,1003.3
2017-04-15T05:26:06.957Z,1003.39
2017-04-15T05:27:08.322Z,1003.37
2017-04-15T05:28:09.581Z,1003.35
2017-04-15T05:29:10.836Z,1003.38
2017-04-15T05:30:12.060Z,1003.4
2017-04-15T05:31:13.295Z,1003.39
2017-04-15T05:32:14.543Z,1003.39
2017-04-15T05:33:15.803Z,1003.52
2017-04-15T05:34:17.072Z,1003.41
2017-04-15T05:35:18.384Z,1003.43
2017-04-15T05:36:19.600Z,1003.41
2017-04-15T05:37:20.828Z,1003.41
2017-04-15T05:38:22.083Z,1003.44
2017-04-15T05:39:23.334Z,1003.43
2017-04-15T05:40:24.599Z,1003.44
2017-04-15T05:41:25.836Z,1003.42
2017-04-15T05:42:27.128Z,1003.39
2017-04-15T05:43:28.368Z,1003.4
2017-04-15T05:44:29.603Z,1003.48
2017-04-15T05:45:30.862Z,1003.41
2017-04-15T05:46:32.413Z,1003.43
2017-04-15T05:47:33.675Z,1003.44
2017-04-15T05:48:34.859Z,1003.42
2017-04-15T05:49:36.103Z,1003.45
2017-04-15T05:50:37.334Z,1003.45
2017-04-15T05:51:38.589Z,1003.4
2017-04-15T05:52:39.915Z,1003.42
2017-04-15T05:53:41.205Z,1003.49
2017-04-15T05:54:42.450Z,1003.48
2017-04-15T05:55:43.685Z,1003.5
2017-04-15T05:56:44.935Z,1003.48
2017-04-15T05:57:46.453Z,1003.47
2017-04-15T05:58:47.764Z,1003.42
2017-04-15T05:59:49.003Z,1003.5
2017-04-15T06:00:50.289Z,1003.52
2017-04-15T06:01:51.497Z,1003.5
2017-04-15T06:02:52.869Z,1003.54
2017-04-15T06:03:54.133Z,1003.51
2017-04-15T06:04:55.384Z,1003.49
2017-04-15T06:05:56.639Z,1003.54
2017-04-15T06:06:57.874Z,1003.57
2017-04-15T06:07:59.123Z,1003.5
2017-04-15T06:09:00.459Z,1003.59
2017-04-15T06:10:01.696Z,1003.56
2017-04-15T06:11:02.984Z,1003.62
2017-04-15T06:12:04.229Z,1003.61
2017-04-15T06:13:05.477Z,1003.61
2017-04-15T06:14:06.728Z,1003.66
2017-04-15T06:15:07.976Z,1003.6
2017-04-15T06:16:09.209Z,1003.59
2017-04-15T06:17:10.456Z,1003.65
2017-04-15T06:18:11.785Z,1003.65
2017-04-15T06:19:13.018Z,1003.64
2017-04-15T06:20:14.254Z,1003.67
2017-04-15T06:21:15.499Z,1003.59
2017-04-15T06:22:16.799Z,1003.59
2017-04-15T06:23:18.104Z,1003.66
2017-04-15T06:24:19.456Z,1003.67
2017-04-15T06:25:20.685Z,1003.73
2017-04-15T06:26:21.927Z,1003.73
2017-04-15T06:27:23.203Z,1003.67
2017-04-15T06:28:24.568Z,1003.71
2017-04-15T06:29:25.897Z,1003.7
2017-04-15T06:30:27.150Z,1003.72
2017-04-15T06:31:28.396Z,1003.69
2017-04-15T06:32:29.652Z,1003.73
2017-04-15T06:33:30.939Z,1003.72
2017-04-15T06:34:32.558Z,1003.72
2017-04-15T06:35:33.891Z,1003.76
2017-04-15T06:36:35.120Z,1003.79
2017-04-15T06:37:36.385Z,1003.78
2017-04-15T06:38:37.629Z,1003.71
2017-04-15T06:39:38.966Z,1003.75
2017-04-15T06:40:40.216Z,1003.75
2017-04-15T06:41:41.450Z,1003.72
2017-04-15T06:42:42.736Z,1003.73
2017-04-15T06:43:44.018Z,1003.81
2017-04-15T06:44:45.245Z,1003.78
2017-04-15T06:45:46.489Z,1003.78
2017-04-15T06:46:47.736Z,1003.75
2017-04-15T06:47:49.034Z,1003.76
2017-04-15T06:48:50.290Z,1003.75
2017-04-15T06:49:51.549Z,1003.77
2017-04-15T06:50:52.784Z,1003.75
2017-04-15T06:51:54.041Z,1003.74
2017-04-15T06:52:55.322Z,1003.76
2017-04-15T06:53:56.535Z,1003.75
2017-04-15T06:54:57.756Z,1003.75
2017-04-15T06:55:58.997Z,1003.82
2017-04-15T06:57:00.242Z,1003.77
2017-04-15T06:58:01.486Z,1003.8
2017-04-15T06:59:02.991Z,1003.77
2017-04-15T07:00:04.223Z,1003.78
2017-04-15T07:01:05.459Z,1003.86
2017-04-15T07:02:06.676Z,1003.84
2017-04-15T07:03:07.945Z,1003.86
2017-04-15T07:04:09.201Z,1003.87
2017-04-15T07:05:10.427Z,1003.86
2017-04-15T07:06:11.778Z,1003.9
2017-04-15T07:07:13.015Z,1003.89
2017-04-15T07:08:14.283Z,1003.88
2017-04-15T07:09:15.509Z,1003.88
2017-04-15T07:10:16.750Z,1003.89
2017-04-15T07:11:17.996Z,1003.87
2017-04-15T07:12:19.326Z,1003.88
2017-04-15T07:13:20.559Z,1003.9
2017-04-15T07:14:21.824Z,1003.96
2017-04-15T07:15:23.033Z,1003.84
2017-04-15T07:16:24.293Z,1003.96
2017-04-15T07:17:25.532Z,1003.92
2017-04-15T07:18:26.766Z,1003.9
2017-04-15T07:19:28.101Z,1003.96
2017-04-15T07:20:29.336Z,1003.98
2017-04-15T07:21:30.591Z,1004.01
2017-04-15T07:22:31.834Z,1003.98
2017-04-15T07:23:33.155Z,1003.99
2017-04-15T07:24:34.402Z,1003.98
2017-04-15T07:25:35.640Z,1004
2017-04-15T07:26:36.901Z,1003.98
2017-04-15T07:27:38.127Z,1003.95
2017-04-15T07:28:39.379Z,1004.04
2017-04-15T07:29:40.723Z,1003.99
2017-04-15T07:30:42.039Z,1004.01
2017-04-15T07:31:43.277Z,1003.97
2017-04-15T07:32:44.522Z,1004
2017-04-15T07:33:45.783Z,1004.02
2017-04-15T07:34:47.116Z,1004.01
2017-04-15T07:35:48.362Z,1004.02
2017-04-15T07:36:49.604Z,1004.03
2017-04-15T07:37:50.888Z,1004.04
2017-04-15T07:38:52.240Z,1004.04
2017-04-15T07:39:53.477Z,1004.1
2017-04-15T07:40:54.855Z,1004.11
2017-04-15T07:41:56.179Z,1004.19
2017-04-15T07:42:57.375Z,1004.14
2017-04-15T07:43:58.714Z,1004.18
2017-04-15T07:45:00.143Z,1004.19
2017-04-15T07:46:01.396Z,1004.13
2017-04-15T07:47:02.641Z,1004.14
2017-04-15T07:48:04.028Z,1004.12
2017-04-15T07:49:05.167Z,1004.09
2017-04-15T07:50:06.416Z,1004.14
2017-04-15T07:51:07.701Z,1004.16
2017-04-15T07:52:08.914Z,1004.12
2017-04-15T07:53:10.145Z,1004.1
2017-04-15T07:54:11.386Z,1004.21
2017-04-15T07:55:12.749Z,1004.23
2017-04-15T07:56:13.990Z,1004.19
2017-04-15T07:57:15.221Z,1004.24
2017-04-15T07:58:16.492Z,1004.35
2017-04-15T07:59:17.730Z,1004.37
2017-04-15T08:00:18.991Z,1004.36
2017-04-15T08:01:20.303Z,1004.3
2017-04-15T08:02:21.555Z,1004.34
2017-04-15T08:03:22.787Z,1004.39
2017-04-15T08:04:24.047Z,1004.3
2017-04-15T08:05:25.285Z,1004.43
2017-04-15T08:06:26.526Z,1004.4
2017-04-15T08:07:27.775Z,1004.4
2017-04-15T08:08:29.038Z,1004.41
2017-04-15T08:09:30.273Z,1004.4
2017-04-15T08:10:31.520Z,1004.35
2017-04-15T08:11:32.776Z,1004.41
2017-04-15T08:12:34.018Z,1004.33
2017-04-15T08:13:35.261Z,1004.38
2017-04-15T08:14:36.638Z,1004.39
2017-04-15T08:15:37.905Z,1004.37
2017-04-15T08:16:39.145Z,1004.39
2017-04-15T08:17:40.389Z,1004.34
2017-04-15T08:18:41.629Z,1004.47
2017-04-15T08:19:42.917Z,1004.39
2017-04-15T08:20:44.157Z,1004.4
2017-04-15T08:21:45.402Z,1004.43
2017-04-15T08:22:46.621Z,1004.39
2017-04-15T08:23:47.893Z,1004.44
2017-04-15T08:24:49.105Z,1004.51
2017-04-15T08:25:50.530Z,1004.3
2017-04-15T08:26:51.777Z,1004.39
2017-04-15T08:27:53.035Z,1004.42
2017-04-15T08:28:54.267Z,1004.36
2017-04-15T08:29:55.592Z,1004.42
2017-04-15T08:30:56.843Z,1004.35
2017-04-15T08:31:58.101Z,1004.44
2017-04-15T08:32:59.317Z,1004.35
2017-04-15T08:34:00.593Z,1004.38
2017-04-15T08:35:01.833Z,1004.41
2017-04-15T08:36:03.087Z,1004.39
2017-04-15T08:37:04.303Z,1004.46
2017-04-15T08:38:05.542Z,1004.42
2017-04-15T08:39:06.798Z,1004.44
2017-04-15T08:40:08.145Z,1004.49
2017-04-15T08:41:09.409Z,1004.56
2017-04-15T08:42:10.690Z,1004.59
2017-04-15T08:43:11.944Z,1004.64
2017-04-15T08:44:13.205Z,1004.63
2017-04-15T08:45:14.464Z,1004.64
2017-04-15T08:46:15.682Z,1004.72
2017-04-15T08:47:16.927Z,1004.57
2017-04-15T08:48:18.158Z,1004.63
2017-04-15T08:49:19.406Z,1004.61
2017-04-15T08:50:20.681Z,1004.63
2017-04-15T08:51:21.919Z,1004.61
2017-04-15T08:52:23.167Z,1004.64
2017-04-15T08:53:24.517Z,1004.71
2017-04-15T08:54:25.810Z,1004.77
2017-04-15T08:55:27.069Z,1004.78
2017-04-15T08:56:28.311Z,1004.78
2017-04-15T08:57:29.628Z,1004.76
2017-04-15T08:58:30.855Z,1004.75
2017-04-15T08:59:32.126Z,1004.75
2017-04-15T09:00:33.550Z,1004.61
2017-04-15T09:01:34.798Z,1004.69
2017-04-15T09:02:36.050Z,1004.65
2017-04-15T09:03:37.286Z,1004.63
2017-04-15T09:04:38.570Z,1004.68
2017-04-15T09:05:39.816Z,1004.66
2017-04-15T09:06:41.086Z,1004.75
2017-04-15T09:07:42.325Z,1004.82
2017-04-15T09:08:43.661Z,1004.75
2017-04-15T09:09:44.924Z,1004.83
2017-04-15T09:10:46.177Z,1004.75
2017-04-15T09:11:47.408Z,1004.67
2017-04-15T09:12:48.769Z,1004.74
2017-04-15T09:13:50.005Z,1004.69
2017-04-15T09:14:51.284Z,1004.67
2017-04-15T09:15:52.552Z,1004.66
2017-04-15T09:16:53.856Z,1004.7
2017-04-15T09:17:55.066Z,1004.69
2017-04-15T09:18:56.304Z,1004.76
2017-04-15T09:19:57.552Z,1004.76
2017-04-15T09:20:58.850Z,1004.77
2017-04-15T09:22:00.084Z,1004.73
2017-04-15T09:23:01.337Z,1004.69
2017-04-15T09:24:02.684Z,1004.69
2017-04-15T09:25:03.940Z,1004.68
2017-04-15T09:26:05.199Z,1004.8
2017-04-15T09:27:06.466Z,1004.81
2017-04-15T09:28:07.694Z,1004.83
2017-04-15T09:29:09.035Z,1004.87
2017-04-15T09:30:10.265Z,1004.91
2017-04-15T09:31:11.622Z,1004.85
2017-04-15T09:32:12.862Z,1004.84
2017-04-15T09:33:14.148Z,1004.79
2017-04-15T09:34:15.383Z,1004.82
2017-04-15T09:35:16.624Z,1004.8
2017-04-15T09:36:17.871Z,1004.76
2017-04-15T09:37:19.187Z,1004.83
2017-04-15T09:38:20.423Z,1004.78
2017-04-15T09:39:21.660Z,1004.76
2017-04-15T09:40:22.911Z,1004.91
2017-04-15T09:41:24.156Z,1004.78
2017-04-15T09:42:25.406Z,1004.87
2017-04-15T09:43:26.644Z,1004.93
2017-04-15T09:44:28.005Z,1004.97
2017-04-15T09:45:29.240Z,1004.88
2017-04-15T09:46:30.494Z,1004.84
2017-04-15T09:47:31.767Z,1004.86
2017-04-15T09:48:33.041Z,1004.86
2017-04-15T09:49:34.333Z,1004.89
2017-04-15T09:50:35.576Z,1004.9
2017-04-15T09:51:36.894Z,1004.89
2017-04-15T09:52:38.174Z,1004.88
2017-04-15T09:53:39.441Z,1004.92
2017-04-15T09:54:40.692Z,1005.01
2017-04-15T09:55:41.931Z,1005.02
2017-04-15T09:56:43.170Z,1004.92
2017-04-15T09:57:44.417Z,1004.95
2017-04-15T09:58:45.661Z,1004.97
2017-04-15T09:59:47.130Z,1005.02
2017-04-15T10:00:48.430Z,1004.97
2017-04-15T10:01:49.695Z,1005.02
2017-04-15T10:02:50.915Z,1004.97
2017-04-15T10:03:52.165Z,1005.01
2017-04-15T10:04:53.398Z,1005.04
2017-04-15T10:05:54.724Z,1005.03
2017-04-15T10:06:55.986Z,1005.03
2017-04-15T10:07:57.219Z,1005
2017-04-15T10:08:58.613Z,1005
2017-04-15T10:09:59.833Z,1004.96
2017-04-15T10:11:01.065Z,1005
2017-04-15T10:12:02.293Z,1005.05
2017-04-15T10:13:03.542Z,1004.98
2017-04-15T10:14:04.923Z,1005.03
2017-04-15T10:15:06.172Z,1005.08
2017-04-15T10:16:07.395Z,1005.06
2017-04-15T10:17:08.638Z,1005.11
2017-04-15T10:18:09.927Z,1005
2017-04-15T10:19:11.234Z,1005.08
2017-04-15T10:20:12.597Z,1005.06
2017-04-15T10:21:13.814Z,1005.01
2017-04-15T10:22:15.053Z,1005.16
2017-04-15T10:23:16.292Z,1005.09
2017-04-15T10:24:17.548Z,1005.16
2017-04-15T10:25:18.848Z,1005.11
2017-04-15T10:26:20.111Z,1005.22
2017-04-15T10:27:21.358Z,1005.17
2017-04-15T10:28:22.607Z,1005.13
2017-04-15T10:29:23.834Z,1005.15
2017-04-15T10:30:25.196Z,1005.2
2017-04-15T10:31:26.436Z,1005.13
2017-04-15T10:32:27.699Z,1005.15
2017-04-15T10:33:28.975Z,1005.09
2017-04-15T10:34:30.307Z,1005.09
2017-04-15T10:35:31.658Z,1005.07
2017-04-15T10:36:32.910Z,1005.05
2017-04-15T10:37:34.152Z,1005.15
2017-04-15T10:38:35.375Z,1005.07
2017-04-15T10:39:36.706Z,1005.11
2017-04-15T10:40:37.923Z,1005.1
2017-04-15T10:41:39.165Z,1005.11
2017-04-15T10:42:40.504Z,1005.06
2017-04-15T10:43:41.752Z,1005.08
2017-04-15T10:44:43.014Z,1005.09
2017-04-15T10:45:44.261Z,1005.07
2017-04-15T10:46:45.611Z,1005.1
2017-04-15T10:47:46.853Z,1005.19
2017-04-15T10:48:48.097Z,1005.16
2017-04-15T10:49:49.423Z,1005.17
2017-04-15T10:50:50.702Z,1005.19
2017-04-15T10:51:51.961Z,1005.09
2017-04-15T10:52:53.204Z,1005.06
2017-04-15T10:53:54.437Z,1005.12
2017-04-15T10:54:55.727Z,1005.07
2017-04-15T10:55:56.975Z,1005.03
2017-04-15T10:56:58.242Z,1005.01
2017-04-15T10:57:59.498Z,1005.05
2017-04-15T10:59:00.750Z,1005.01
2017-04-15T11:00:01.983Z,1005.03
2017-04-15T11:01:03.199Z,1005.01
2017-04-15T11:02:04.547Z,1005.04
2017-04-15T11:03:05.825Z,1005.01
2017-04-15T11:04:07.052Z,1005.01
2017-04-15T11:05:08.380Z,1004.99
2017-04-15T11:06:09.620Z,1005.02
2017-04-15T11:07:10.882Z,1004.9
2017-04-15T11:08:12.232Z,1004.92
2017-04-15T11:09:13.374Z,1004.97
2017-04-15T11:10:14.744Z,1005.03
2017-04-15T11:11:16.018Z,1005.03
2017-04-15T11:12:17.299Z,1005.03
2017-04-15T11:13:18.555Z,1005.05
2017-04-15T11:14:19.814Z,1005.1
2017-04-15T11:15:21.099Z,1004.88
2017-04-15T11:16:22.303Z,1005.03
2017-04-15T11:17:23.559Z,1005.13
2017-04-15T11:18:24.824Z,1005.12
2017-04-15T11:19:26.062Z,1005.12
2017-04-15T11:20:27.308Z,1005.17
2017-04-15T11:21:28.611Z,1005.11
2017-04-15T11:22:29.854Z,1005.09
2017-04-15T11:23:31.098Z,1005.15
2017-04-15T11:24:32.341Z,1005.15
2017-04-15T11:25:33.577Z,1005.16
2017-04-15T11:26:34.816Z,1005.17
2017-04-15T11:27:36.075Z,1005.18
2017-04-15T11:28:37.307Z,1005.2
2017-04-15T11:29:38.545Z,1005.25
2017-04-15T11:30:39.794Z,1005.31
2017-04-15T11:31:41.055Z,1005.19
2017-04-15T11:32:42.354Z,1005.28
2017-04-15T11:33:43.610Z,1005.23
2017-04-15T11:34:44.849Z,1005.2
2017-04-15T11:35:46.091Z,1005.22
2017-04-15T11:36:47.370Z,1005.29
2017-04-15T11:37:48.603Z,1005.28
2017-04-15T11:38:49.844Z,1005.32
2017-04-15T11:39:51.224Z,1005.29
2017-04-15T11:40:52.596Z,1005.25
2017-04-15T11:41:53.853Z,1005.32
2017-04-15T11:42:55.101Z,1005.39
2017-04-15T11:43:56.343Z,1005.33
2017-04-15T11:44:57.595Z,1005.36
2017-04-15T11:45:58.886Z,1005.36
2017-04-15T11:47:00.203Z,1005.4
2017-04-15T11:48:01.511Z,1005.43
2017-04-15T11:49:02.768Z,1005.33
2017-04-15T11:50:04.080Z,1005.38
2017-04-15T11:51:05.468Z,1005.39
2017-04-15T11:52:06.857Z,1005.36
2017-04-15T11:53:08.118Z,1005.26
2017-04-15T11:54:09.355Z,1005.17
2017-04-15T11:55:10.631Z,1005.27
2017-04-15T11:56:11.885Z,1005.22
2017-04-15T11:57:13.299Z,1005.27
2017-04-15T11:58:14.588Z,1005.18
2017-04-15T11:59:15.838Z,1005.26
2017-04-15T12:00:17.110Z,1005.3
2017-04-15T12:01:18.324Z,1005.38
2017-04-15T12:02:19.552Z,1005.36
2017-04-15T12:03:20.919Z,1005.34
2017-04-15T12:04:22.146Z,1005.35
2017-04-15T12:05:23.391Z,1005.17
2017-04-15T12:06:24.655Z,1005.25
2017-04-15T12:07:25.893Z,1005.25
2017-04-15T12:08:27.200Z,1005.2
2017-04-15T12:09:28.498Z,1005.28
2017-04-15T12:10:29.731Z,1005.28
2017-04-15T12:11:31.007Z,1005.26
2017-04-15T12:12:32.400Z,1005.35
2017-04-15T12:13:33.657Z,1005.35
2017-04-15T12:14:34.883Z,1005.42
2017-04-15T12:15:36.117Z,1005.45
2017-04-15T12:16:37.365Z,1005.34
2017-04-15T12:17:38.677Z,1005.37
2017-04-15T12:18:39.922Z,1005.43
2017-04-15T12:19:41.192Z,1005.45
2017-04-15T12:20:42.447Z,1005.51
2017-04-15T12:21:43.695Z,1005.52
2017-04-15T12:22:45.082Z,1005.49
2017-04-15T12:23:46.349Z,1005.57